createdAt,value
2023-03-26T00:01:24.399Z,1.23
2023-03-26T00:03:52.873Z,1.20
2023-03-26T00:06:22.174Z,1.02
2023-03-26T00:08:49.863Z,1.00
2023-03-26T00:11:19.575Z,1.02
2023-03-26T00:13:47.398Z,1.00
2023-03-26T00:16:18.087Z,1.60
2023-03-26T00:18:45.873Z,1.73
2023-03-26T00:21:14.814Z,1.10
2023-03-26T00:23:42.733Z,0.98
2023-03-26T00:26:10.284Z,1.13
2023-03-26T00:28:38.658Z,1.30
2023-03-26T00:31:10.560Z,1.02
2023-03-26T00:33:40.058Z,1.33
2023-03-26T00:36:09.631Z,1.20
2023-03-26T00:38:37.230Z,1.27
2023-03-26T00:41:06.265Z,0.90
2023-03-26T00:43:35.252Z,1.40
2023-03-26T00:46:02.772Z,1.27
2023-03-26T00:48:44.083Z,1.83
2023-03-26T00:51:15.174Z,1.20
2023-03-26T00:53:43.569Z,1.40
2023-03-26T00:56:11.355Z,1.10
2023-03-26T00:58:38.801Z,1.42
2023-03-26T01:01:09.086Z,1.30
2023-03-26T01:03:37.817Z,1.30
2023-03-26T01:06:07.546Z,2.35
2023-03-26T01:08:40.463Z,1.20
2023-03-26T01:11:14.509Z,1.30
2023-03-26T01:13:46.594Z,1.52
2023-03-26T01:16:26.648Z,1.40
2023-03-26T01:18:54.478Z,1.38
2023-03-26T01:21:24.555Z,1.88
2023-03-26T01:24:01.230Z,1.50
2023-03-26T01:26:47.581Z,1.17
2023-03-26T01:29:22.777Z,1.35
2023-03-26T01:32:00.879Z,1.60
2023-03-26T01:34:36.064Z,1.63
2023-03-26T01:37:12.628Z,1.08
2023-03-26T01:39:50.610Z,1.70
2023-03-26T01:42:25.275Z,1.30
2023-03-26T01:44:57.643Z,1.17
2023-03-26T01:47:25.536Z,1.98
2023-03-26T01:49:52.765Z,1.52
2023-03-26T01:52:22.074Z,1.65
2023-03-26T01:54:50.821Z,1.40
2023-03-26T01:57:23.637Z,1.27
2023-03-26T02:00:07.272Z,1.88
2023-03-26T02:02:52.737Z,1.13
2023-03-26T02:05:25.120Z,1.30
2023-03-26T02:07:59.826Z,1.52
2023-03-26T02:10:33.627Z,1.45
2023-03-26T02:13:01.257Z,1.38
2023-03-26T02:15:28.665Z,1.70
2023-03-26T02:17:55.865Z,1.15
2023-03-26T02:20:23.090Z,1.50
2023-03-26T02:22:50.258Z,1.63
2023-03-26T02:25:20.837Z,1.63
2023-03-26T02:27:52.453Z,1.67
2023-03-26T02:30:23.170Z,1.45
2023-03-26T02:32:51.428Z,1.60
2023-03-26T02:35:20.922Z,1.40
2023-03-26T02:37:51.225Z,1.30
2023-03-26T02:40:21.285Z,2.15
2023-03-26T02:42:51.198Z,1.55
2023-03-26T02:45:18.385Z,1.77
2023-03-26T02:48:05.063Z,1.63
2023-03-26T02:50:41.920Z,1.33
2023-03-26T02:53:44.554Z,1.90
2023-03-26T02:56:25.988Z,1.40
2023-03-26T02:59:09.836Z,1.50
2023-03-26T03:01:38.373Z,1.50
2023-03-26T03:04:05.859Z,1.52
2023-03-26T03:06:36.686Z,1.55
2023-03-26T03:09:04.212Z,2.28
2023-03-26T03:11:37.904Z,1.30
2023-03-26T03:14:06.245Z,1.55
2023-03-26T03:16:35.785Z,1.33
2023-03-26T03:19:08.783Z,1.60
2023-03-26T03:21:38.058Z,2.05
2023-03-26T03:24:06.669Z,1.48
2023-03-26T03:26:37.523Z,1.55
2023-03-26T03:29:16.081Z,2.03
2023-03-26T03:31:44.711Z,1.33
2023-03-26T03:34:24.960Z,2.08
2023-03-26T03:36:52.182Z,1.75
2023-03-26T03:39:32.020Z,1.65
2023-03-26T03:41:59.200Z,2.05
2023-03-26T03:44:26.487Z,1.88
2023-03-26T03:46:55.079Z,1.80
2023-03-26T03:49:22.847Z,1.67
2023-03-26T03:51:50.099Z,1.70
2023-03-26T03:54:25.507Z,1.67
2023-03-26T03:57:05.867Z,1.52
2023-03-26T03:59:53.289Z,1.63
2023-03-26T04:02:22.081Z,1.50
2023-03-26T04:04:56.305Z,2.05
2023-03-26T04:07:23.932Z,1.60
2023-03-26T04:10:14.862Z,2.45
2023-03-26T04:13:00.478Z,1.70
2023-03-26T04:15:46.444Z,1.70
2023-03-26T04:18:15.497Z,2.03
2023-03-26T04:20:45.189Z,2.45
2023-03-26T04:23:16.247Z,1.98
2023-03-26T04:25:48.046Z,1.35
2023-03-26T04:28:28.117Z,1.83
2023-03-26T04:31:20.491Z,1.70
2023-03-26T04:33:50.206Z,2.40
2023-03-26T04:36:18.461Z,2.30
2023-03-26T04:38:48.783Z,1.70
2023-03-26T04:41:17.830Z,1.48
2023-03-26T04:43:52.228Z,2.67
2023-03-26T04:46:32.685Z,1.83
2023-03-26T04:49:08.960Z,2.20
2023-03-26T04:51:38.423Z,1.98
2023-03-26T04:54:23.071Z,1.42
2023-03-26T04:56:58.701Z,1.75
2023-03-26T04:59:39.047Z,1.73
2023-03-26T05:02:11.582Z,2.63
2023-03-26T05:04:48.796Z,1.58
2023-03-26T05:07:18.800Z,1.85
2023-03-26T05:09:49.463Z,2.78
2023-03-26T05:12:22.584Z,1.65
2023-03-26T05:15:05.281Z,1.67
2023-03-26T05:17:51.447Z,2.00
2023-03-26T05:20:40.496Z,1.85
2023-03-26T05:23:09.757Z,2.45
2023-03-26T05:25:40.466Z,1.70
2023-03-26T05:28:15.509Z,2.10
2023-03-26T05:30:54.811Z,2.00
2023-03-26T05:33:24.118Z,2.15
2023-03-26T05:36:03.505Z,2.00
2023-03-26T05:38:32.387Z,1.77
2023-03-26T05:41:06.082Z,1.52
2023-03-26T05:43:35.543Z,3.28
2023-03-26T05:46:28.907Z,2.42
2023-03-26T05:48:56.190Z,2.05
2023-03-26T05:51:24.856Z,1.90
2023-03-26T05:54:12.443Z,2.22
2023-03-26T05:57:08.807Z,1.80
2023-03-26T05:59:55.155Z,1.73
2023-03-26T06:02:40.731Z,1.95
2023-03-26T06:05:35.767Z,2.33
2023-03-26T06:08:10.459Z,1.83
2023-03-26T06:10:39.135Z,2.42
2023-03-26T06:13:06.395Z,1.90
2023-03-26T06:15:36.333Z,2.20
2023-03-26T06:18:12.638Z,1.75
2023-03-26T06:21:12.280Z,1.60
2023-03-26T06:23:46.479Z,2.65
2023-03-26T06:26:30.603Z,2.40
2023-03-26T06:29:16.232Z,2.00
2023-03-26T06:31:55.744Z,2.47
2023-03-26T06:34:34.507Z,3.33
2023-03-26T06:37:01.702Z,2.72
2023-03-26T06:39:30.962Z,2.75
2023-03-26T06:42:32.164Z,2.53
2023-03-26T06:45:38.498Z,1.92
2023-03-26T06:48:24.213Z,2.45
2023-03-26T06:51:11.294Z,2.75
2023-03-26T06:53:56.983Z,2.20
2023-03-26T06:56:44.950Z,3.35
2023-03-26T06:59:30.948Z,2.47
2023-03-26T07:02:18.360Z,2.92
2023-03-26T07:05:04.305Z,2.22
2023-03-26T07:07:50.257Z,2.05
2023-03-26T07:10:35.874Z,2.30
2023-03-26T07:13:27.576Z,3.08
2023-03-26T07:16:33.452Z,3.53
2023-03-26T07:19:21.422Z,3.00
2023-03-26T07:21:49.446Z,2.53
2023-03-26T07:24:49.852Z,2.33
2023-03-26T07:27:44.070Z,2.13
2023-03-26T07:30:19.057Z,2.90
2023-03-26T07:33:18.904Z,2.60
2023-03-26T07:36:17.446Z,3.85
2023-03-26T07:39:15.199Z,3.42
2023-03-26T07:42:06.504Z,3.35
2023-03-26T07:45:02.073Z,3.10
2023-03-26T07:47:43.034Z,2.63
2023-03-26T07:50:37.283Z,3.08
2023-03-26T07:53:22.219Z,2.33
2023-03-26T07:56:16.368Z,2.25
2023-03-26T07:59:17.894Z,2.40
2023-03-26T08:02:57.661Z,2.55
2023-03-26T08:05:52.006Z,2.67
2023-03-26T08:08:47.925Z,2.05
2023-03-26T08:11:46.296Z,2.50
2023-03-26T08:14:24.388Z,2.50
2023-03-26T08:16:55.937Z,3.40
2023-03-26T08:19:37.799Z,2.75
2023-03-26T08:22:12.136Z,3.17
2023-03-26T08:24:47.445Z,3.65
2023-03-26T08:27:22.640Z,2.90
2023-03-26T08:29:55.205Z,3.30
2023-03-26T08:32:22.922Z,2.88
2023-03-26T08:34:51.440Z,3.67
2023-03-26T08:37:18.649Z,3.47
2023-03-26T08:39:45.751Z,3.53
2023-03-26T08:43:03.394Z,2.97
2023-03-26T08:45:55.148Z,2.67
2023-03-26T08:48:45.358Z,2.85
2023-03-26T08:51:42.252Z,2.67
2023-03-26T08:54:31.938Z,2.35
2023-03-26T08:57:26.215Z,2.40
2023-03-26T09:00:14.356Z,3.03
2023-03-26T09:03:18.365Z,3.58
2023-03-26T09:06:06.309Z,3.60
2023-03-26T09:09:06.476Z,3.05
2023-03-26T09:12:07.408Z,2.63
2023-03-26T09:15:15.876Z,2.78
2023-03-26T09:18:34.016Z,3.00
2023-03-26T09:21:27.421Z,2.80
2023-03-26T09:24:34.920Z,3.17
2023-03-26T09:27:18.886Z,3.25
2023-03-26T09:30:23.436Z,3.22
2023-03-26T09:33:32.615Z,2.90
2023-03-26T09:36:29.214Z,3.40
2023-03-26T09:39:07.001Z,2.95
2023-03-26T09:41:43.047Z,3.63
2023-03-26T09:44:57.660Z,3.63
2023-03-26T09:47:50.275Z,3.80
2023-03-26T09:50:35.140Z,2.78
2023-03-26T09:53:29.105Z,2.88
2023-03-26T09:56:04.558Z,2.28
2023-03-26T09:59:15.210Z,2.60
2023-03-26T10:01:48.885Z,3.38
2023-03-26T10:04:51.613Z,2.53
2023-03-26T10:07:48.201Z,2.83
2023-03-26T10:10:25.795Z,2.88
2023-03-26T10:13:08.136Z,2.60
2023-03-26T10:16:00.039Z,2.42
2023-03-26T10:18:38.594Z,2.17
2023-03-26T10:21:13.084Z,1.45
2023-03-26T10:24:10.973Z,1.52
2023-03-26T10:27:08.027Z,2.13
2023-03-26T10:30:00.805Z,1.40
2023-03-26T10:32:36.044Z,1.55
2023-03-26T10:35:16.437Z,1.95
2023-03-26T10:37:57.866Z,1.92
2023-03-26T10:40:31.156Z,2.40
2023-03-26T10:43:42.438Z,2.03
2023-03-26T10:46:47.321Z,1.80
2023-03-26T10:49:27.764Z,2.10
2023-03-26T10:51:58.713Z,3.13
2023-03-26T10:54:36.911Z,1.92
2023-03-26T11:36:25.097Z,2.20
2023-03-26T11:38:56.807Z,1.95
2023-03-26T11:41:30.222Z,1.73
2023-03-26T11:44:23.139Z,1.52
2023-03-26T11:46:57.177Z,1.58
2023-03-26T11:49:26.831Z,1.60
2023-03-26T11:51:55.497Z,1.60
2023-03-26T11:54:22.696Z,1.60
2023-03-26T11:57:05.479Z,1.42
2023-03-26T11:59:45.602Z,1.27
2023-03-26T12:02:22.969Z,1.77
2023-03-26T12:04:51.821Z,1.13
2023-03-26T12:07:22.494Z,1.20
2023-03-26T12:09:50.767Z,1.90
2023-03-26T12:12:18.381Z,1.70
2023-03-26T12:14:47.027Z,1.27
2023-03-26T12:17:30.935Z,1.42
2023-03-26T12:19:59.812Z,1.80
2023-03-26T12:22:32.445Z,1.50
2023-03-26T12:25:13.843Z,1.70
2023-03-26T12:27:43.625Z,1.70
2023-03-26T12:30:18.643Z,1.58
2023-03-26T12:32:47.786Z,2.58
2023-03-26T12:35:24.870Z,1.60
2023-03-26T12:40:30.320Z,1.80
2023-03-26T12:44:53.289Z,1.48
2023-03-26T12:47:55.587Z,1.00
2023-03-26T12:48:37.713Z,0.80
2023-03-26T12:51:14.318Z,0.85
2023-03-26T12:54:06.910Z,1.20
2023-03-26T12:56:42.098Z,1.30
2023-03-26T12:59:24.313Z,1.60
2023-03-26T13:02:04.790Z,1.30
2023-03-26T13:05:05.597Z,1.63
2023-03-26T13:07:51.033Z,1.08
2023-03-26T13:10:37.844Z,1.38
2023-03-26T13:13:17.671Z,1.42
2023-03-26T13:15:49.942Z,1.50
2023-03-26T13:18:32.651Z,1.50
2023-03-26T13:21:08.694Z,1.52
2023-03-26T13:23:45.571Z,1.90
2023-03-26T13:26:37.470Z,1.90
2023-03-26T13:29:13.356Z,1.77
2023-03-26T13:31:46.981Z,1.60
2023-03-26T13:34:22.314Z,1.58
2023-03-26T13:37:00.816Z,1.23
2023-03-26T13:39:37.317Z,1.17
2023-03-26T13:42:36.301Z,1.48
2023-03-26T13:45:12.638Z,1.35
2023-03-26T13:47:46.166Z,1.20
2023-03-26T13:50:21.669Z,1.40
2023-03-26T13:52:52.406Z,1.10
2023-03-26T13:55:24.589Z,1.17
2023-03-26T13:58:00.822Z,1.27
2023-03-26T14:00:35.516Z,0.88
2023-03-26T14:03:15.717Z,0.90
2023-03-26T14:05:46.634Z,1.00
2023-03-26T14:08:19.994Z,0.90
2023-03-26T14:10:54.719Z,1.00
2023-03-26T14:13:31.226Z,1.10
2023-03-26T14:16:08.424Z,0.90
2023-03-26T14:18:41.142Z,0.95
2023-03-26T14:21:48.271Z,0.70
2023-03-26T14:24:42.045Z,0.90
2023-03-26T14:27:37.919Z,0.80
2023-03-26T14:30:40.043Z,1.08
2023-03-26T14:36:00.268Z,1.42
2023-03-26T14:38:57.887Z,1.00
2023-03-26T14:41:29.533Z,0.80
2023-03-26T14:44:25.661Z,0.90
2023-03-26T14:47:14.776Z,0.90
2023-03-26T14:50:19.678Z,0.90
2023-03-26T14:52:48.606Z,1.05
2023-03-26T14:55:27.136Z,0.90
2023-03-26T14:58:11.631Z,1.20
2023-03-26T15:01:14.269Z,2.20
2023-03-26T15:04:24.282Z,0.82
2023-03-26T15:07:24.379Z,0.90
2023-03-26T15:10:27.609Z,1.17
2023-03-26T15:13:07.558Z,1.13
2023-03-26T15:16:19.152Z,1.00
2023-03-26T15:19:50.790Z,1.42
2023-03-26T15:22:55.261Z,1.30
2023-03-26T15:25:50.681Z,1.30
2023-03-26T15:29:14.789Z,0.90
2023-03-26T15:32:08.756Z,1.10
2023-03-26T15:34:57.038Z,1.00
2023-03-26T15:38:00.997Z,1.10
2023-03-26T15:40:47.602Z,1.20
2023-03-26T15:43:16.152Z,0.90
2023-03-26T15:45:47.869Z,0.93
2023-03-26T15:48:36.540Z,1.65
2023-03-26T15:51:22.964Z,1.52
2023-03-26T15:53:57.807Z,1.45
2023-03-26T15:56:40.917Z,1.65
2023-03-26T15:59:23.317Z,1.00
2023-03-26T16:01:58.439Z,0.98
2023-03-26T16:04:39.333Z,1.10
2023-03-26T16:10:12.387Z,1.17
2023-03-26T16:12:53.132Z,1.38
2023-03-26T16:15:29.639Z,0.80
2023-03-26T16:18:17.662Z,0.57
2023-03-26T16:20:46.913Z,0.55
2023-03-26T16:23:24.544Z,1.75
2023-03-26T16:26:00.136Z,0.70
2023-03-26T16:29:05.549Z,0.77
2023-03-26T16:31:37.749Z,0.57
2023-03-26T16:34:24.872Z,0.40
2023-03-26T16:36:52.918Z,0.40
2023-03-26T16:39:23.529Z,0.38
2023-03-26T16:42:25.146Z,0.70
2023-03-26T16:45:08.538Z,0.55
2023-03-26T16:47:44.727Z,0.52
2023-03-26T16:50:21.436Z,0.40
2023-03-26T16:52:54.709Z,0.60
2023-03-26T16:55:28.199Z,0.60
2023-03-26T16:58:07.684Z,0.45
2023-03-26T17:00:45.844Z,1.20
2023-03-26T17:03:26.573Z,0.70
2023-03-26T17:06:03.409Z,1.00
2023-03-26T17:08:40.691Z,1.35
2023-03-26T17:11:21.828Z,1.55
2023-03-26T17:14:00.701Z,0.80
2023-03-26T17:16:34.452Z,0.70
2023-03-26T17:19:14.193Z,0.60
2023-03-26T17:21:54.300Z,0.68
2023-03-26T17:24:34.848Z,0.98
2023-03-26T17:27:32.105Z,1.73
2023-03-26T17:30:02.687Z,1.13
2023-03-26T17:32:55.224Z,1.15
2023-03-26T17:35:45.528Z,1.52
2023-03-26T17:38:50.115Z,1.60
2023-03-26T17:41:52.039Z,0.98
2023-03-26T17:44:41.093Z,1.58
2023-03-26T17:47:19.975Z,0.90
2023-03-26T17:49:51.108Z,0.90
2023-03-26T17:52:23.826Z,0.80
2023-03-26T17:54:54.746Z,0.80
2023-03-26T17:57:25.633Z,0.77
2023-03-26T17:59:56.925Z,0.70
2023-03-26T18:02:34.377Z,0.73
2023-03-26T18:05:04.246Z,1.00
2023-03-26T18:08:15.556Z,1.48
2023-03-26T18:11:10.137Z,1.42
2023-03-26T18:14:11.788Z,1.27
2023-03-26T18:16:42.017Z,1.40
2023-03-26T18:19:13.414Z,1.80
2023-03-26T18:21:41.957Z,2.60
2023-03-26T18:24:15.199Z,2.60
2023-03-26T18:26:44.415Z,2.97
2023-03-26T18:29:21.509Z,2.42
2023-03-26T18:31:52.567Z,2.97
2023-03-26T18:34:20.432Z,3.70
2023-03-26T18:36:58.778Z,3.38
2023-03-26T18:39:26.005Z,3.47
2023-03-26T18:41:53.460Z,3.20
2023-03-26T18:44:21.192Z,2.90
2023-03-26T18:46:48.486Z,2.92
2023-03-26T18:49:16.915Z,2.50
2023-03-26T18:51:56.280Z,3.00
2023-03-26T18:54:31.932Z,2.40
2023-03-26T18:57:15.848Z,2.60
2023-03-26T18:59:44.032Z,3.00
2023-03-26T19:02:12.948Z,2.58
2023-03-26T19:04:42.748Z,2.83
2023-03-26T19:07:15.788Z,2.83
2023-03-26T19:09:44.903Z,3.13
2023-03-26T19:12:17.285Z,2.88
2023-03-26T19:14:53.889Z,3.03
2023-03-26T19:17:22.551Z,3.30
2023-03-26T19:19:50.410Z,2.95
2023-03-26T19:22:19.548Z,3.47
2023-03-26T19:24:53.829Z,3.20
2023-03-26T19:27:21.101Z,2.80
2023-03-26T19:29:48.408Z,3.17
2023-03-26T19:32:19.141Z,3.40
2023-03-26T19:34:47.750Z,3.15
2023-03-26T19:37:20.542Z,4.20
2023-03-26T19:39:51.519Z,3.20
2023-03-26T19:42:23.309Z,2.93
2023-03-26T19:47:22.037Z,3.58
2023-03-26T19:49:54.337Z,4.45
2023-03-26T19:52:24.856Z,4.80
2023-03-26T19:54:59.677Z,4.68
2023-03-26T19:57:29.824Z,4.88
2023-03-26T19:59:57.611Z,4.72
2023-03-26T20:02:25.342Z,4.68
2023-03-26T20:04:52.770Z,4.88
2023-03-26T20:07:21.643Z,4.00
2023-03-26T20:10:05.964Z,4.32
2023-03-26T20:12:33.265Z,4.15
2023-03-26T20:15:00.836Z,3.78
2023-03-26T20:17:28.252Z,2.90
2023-03-26T20:19:55.494Z,3.53
2023-03-26T20:22:22.712Z,2.60
2023-03-26T20:24:49.956Z,2.30
2023-03-26T20:27:18.631Z,2.67
2023-03-26T20:29:45.860Z,2.53
2023-03-26T20:32:20.890Z,2.67
2023-03-26T20:34:48.645Z,2.63
2023-03-26T20:37:16.175Z,2.63
2023-03-26T20:39:43.721Z,2.25
2023-03-26T20:42:11.423Z,2.15
2023-03-26T20:44:40.254Z,1.55
2023-03-26T20:47:09.350Z,1.60
2023-03-26T20:49:36.792Z,4.68
2023-03-26T20:52:04.066Z,4.80
2023-03-26T20:54:31.238Z,4.78
2023-03-26T20:56:58.513Z,5.43
2023-03-26T20:59:27.336Z,4.20
2023-03-26T21:01:57.910Z,4.28
2023-03-26T21:04:26.560Z,3.75
2023-03-26T21:07:00.233Z,1.23
2023-03-26T21:09:28.716Z,1.00
2023-03-26T21:12:01.617Z,1.30
2023-03-26T21:14:32.759Z,1.60
2023-03-26T21:17:02.055Z,1.58
2023-03-26T21:19:30.000Z,1.10
2023-03-26T21:22:09.347Z,0.70
2023-03-26T21:24:48.217Z,0.65
2023-03-26T21:27:22.996Z,0.55
2023-03-26T21:29:50.756Z,0.40
2023-03-26T21:32:20.195Z,0.40
2023-03-26T21:34:57.587Z,0.45
2023-03-26T21:37:26.542Z,0.50
2023-03-26T21:39:54.264Z,0.60
2023-03-26T21:42:21.927Z,0.40
2023-03-26T21:44:49.444Z,0.20
2023-03-26T21:47:17.014Z,0.50
2023-03-26T21:49:46.214Z,0.25
2023-03-26T21:52:15.251Z,0.30
2023-03-26T21:54:43.949Z,0.30
2023-03-26T21:57:25.375Z,0.40
2023-03-26T22:00:02.196Z,0.30
2023-03-26T22:02:50.134Z,0.30
2023-03-26T22:05:23.214Z,0.22
2023-03-26T22:07:54.427Z,0.20
2023-03-26T22:10:22.134Z,0.60
2023-03-26T22:12:49.813Z,0.38
2023-03-26T22:15:17.714Z,0.30
2023-03-26T22:17:45.389Z,0.55
2023-03-26T22:20:14.482Z,0.43
2023-03-26T22:22:43.153Z,0.60
2023-03-26T22:25:10.322Z,0.50
2023-03-26T22:27:44.015Z,1.30
2023-03-26T22:30:13.130Z,0.93
2023-03-26T22:32:40.401Z,2.00
2023-03-26T22:35:08.267Z,1.70
2023-03-26T22:37:35.546Z,1.50
2023-03-26T22:40:04.487Z,2.05
2023-03-26T22:42:31.643Z,1.23
2023-03-26T22:44:58.838Z,3.15
2023-03-26T22:47:26.232Z,2.55
2023-03-26T22:49:53.470Z,2.00
2023-03-26T22:52:20.625Z,1.58
2023-03-26T22:54:47.781Z,1.20
2023-03-26T22:57:16.462Z,1.05
2023-03-26T22:59:43.684Z,0.90
2023-03-26T23:02:11.111Z,1.85
2023-03-26T23:04:38.544Z,1.50
2023-03-26T23:07:06.180Z,1.90
2023-03-26T23:09:33.369Z,1.55
2023-03-26T23:12:00.616Z,1.60
2023-03-26T23:14:29.386Z,1.75
2023-03-26T23:16:56.518Z,1.30
2023-03-26T23:19:23.794Z,1.60
2023-03-26T23:21:51.013Z,1.30
2023-03-26T23:24:18.217Z,1.13
2023-03-26T23:26:50.474Z,1.45
2023-03-26T23:29:18.403Z,1.10
2023-03-26T23:31:47.156Z,1.52
2023-03-26T23:34:14.400Z,1.20
2023-03-26T23:36:41.593Z,1.10
2023-03-26T23:39:08.870Z,1.30
2023-03-26T23:41:36.167Z,1.60
2023-03-26T23:44:03.834Z,1.42
2023-03-26T23:46:31.254Z,1.23
2023-03-26T23:49:00.210Z,1.20
2023-03-26T23:51:28.045Z,1.85
2023-03-26T23:53:55.381Z,1.25
2023-03-26T23:56:22.558Z,1.42
2023-03-26T23:58:49.737Z,1.23
